Time;durP1;ratioP1;P1;durP2;ratioP2;P2;SDS_P1;SDS_P2;PMS_P1;PMS_P2;Temp;Humidity;BMP_temperature;BMP_pressure;BME280_temperature;BME280_humidity;BME280_pressure;Samples;Min_cycle;Max_cycle;Signal;HPM_P1;HPM_P2
2022/05/11 00:00:19;;;;;;;5.93;3.40;;;;;;;;;;5105634;28;20183;-85
2022/05/11 00:02:45;;;;;;;4.47;3.00;;;;;;;;;;5125013;28;20228;-85
2022/05/11 00:05:12;;;;;;;3.90;2.90;;;13.50;99.90;;;;;;5124820;28;20249;-85
2022/05/11 00:07:38;;;;;;;8.17;3.30;;;13.50;99.90;;;;;;5125178;28;20175;-85
2022/05/11 00:10:12;;;;;;;3.10;2.73;;;13.50;99.90;;;;;;5106269;28;20232;-84
2022/05/11 00:12:43;;;;;;;4.50;3.20;;;13.40;99.90;;;;;;5106635;28;20264;-85
2022/05/11 00:15:10;;;;;;;3.90;3.03;;;13.40;99.90;;;;;;5106990;28;20176;-85
2022/05/11 00:17:36;;;;;;;3.33;3.03;;;13.40;99.90;;;;;;5106424;28;20190;-85
2022/05/11 00:20:06;;;;;;;5.80;3.53;;;13.30;99.90;;;;;;5125100;28;20175;-85
2022/05/11 00:22:33;;;;;;;5.87;2.77;;;13.20;99.90;;;;;;5106753;28;20182;-84
2022/05/11 00:24:58;;;;;;;4.60;3.00;;;13.20;99.90;;;;;;5106460;28;20288;-85
2022/05/11 00:27:24;;;;;;;3.60;2.97;;;;;;;;;;5107086;28;20191;-85
2022/05/11 00:29:50;;;;;;;3.93;3.00;;;13.10;99.90;;;;;;5124511;28;20171;-85
2022/05/11 00:32:16;;;;;;;4.03;3.17;;;;;;;;;;5105916;28;20183;-85
2022/05/11 00:34:42;;;;;;;3.43;2.97;;;13.10;99.90;;;;;;5106689;28;20304;-85
2022/05/11 00:37:07;;;;;;;3.97;2.80;;;13.10;99.90;;;;;;5125462;28;20268;-85
2022/05/11 00:39:35;;;;;;;2.87;2.53;;;13.10;99.90;;;;;;5107999;28;20336;-84
2022/05/11 00:42:04;;;;;;;5.67;3.80;;;13.10;99.90;;;;;;5108431;28;20607;-84
2022/05/11 00:44:30;;;;;;;4.70;3.33;;;13.10;99.90;;;;;;5126081;28;20203;-84
2022/05/11 00:47:00;;;;;;;2.97;2.67;;;13.10;99.90;;;;;;5126393;28;20590;-84
2022/05/11 00:49:43;;;;;;;3.50;2.63;;;13.00;99.90;;;;;;5107947;28;20265;-84
2022/05/11 00:52:12;;;;;;;6.27;3.00;;;13.00;99.90;;;;;;5108133;28;20525;-86
2022/05/11 00:54:44;;;;;;;6.87;3.20;;;13.00;99.90;;;;;;5107651;28;20660;-85
2022/05/11 00:57:15;;;;;;;3.90;2.83;;;13.00;99.90;;;;;;5108499;28;20267;-85
2022/05/11 00:59:44;;;;;;;7.03;2.83;;;13.00;99.90;;;;;;5107025;28;20175;-84
2022/05/11 01:02:10;;;;;;;4.77;2.67;;;12.90;99.90;;;;;;5108771;28;20187;-85
2022/05/11 01:04:40;;;;;;;3.23;2.90;;;13.00;99.90;;;;;;5117651;28;20238;-83
2022/05/11 01:07:09;;;;;;;3.97;3.10;;;13.00;99.90;;;;;;5110839;28;20270;-85
2022/05/11 01:09:35;;;;;;;3.10;2.77;;;13.00;99.90;;;;;;5107375;28;20187;-84
2022/05/11 01:12:02;;;;;;;3.57;2.70;;;13.00;99.90;;;;;;5108257;28;20183;-85
2022/05/11 01:14:32;;;;;;;5.50;3.00;;;13.00;99.90;;;;;;5116319;28;20198;-84
2022/05/11 01:16:58;;;;;;;5.43;2.83;;;13.00;99.90;;;;;;5106956;28;20180;-84
2022/05/11 01:19:38;;;;;;;3.83;2.80;;;13.00;99.90;;;;;;5107366;28;20660;-84
2022/05/11 01:22:37;;;;;;;3.67;2.70;;;12.90;99.90;;;;;;5106459;28;20206;-84
2022/05/11 01:25:06;;;;;;;3.30;2.57;;;12.90;99.90;;;;;;5106439;28;20203;-84
2022/05/11 01:27:40;;;;;;;3.80;3.00;;;12.80;99.90;;;;;;5106709;28;20179;-84
2022/05/11 01:30:08;;;;;;;3.23;2.93;;;12.80;99.90;;;;;;5105919;28;20583;-84
2022/05/11 01:32:35;;;;;;;4.67;2.70;;;12.80;99.90;;;;;;5105675;28;20180;-85
2022/05/11 01:35:41;;;;;;;3.10;2.73;;;12.80;99.90;;;;;;5124065;28;20637;-84
2022/05/11 01:38:22;;;;;;;3.60;3.03;;;12.70;99.90;;;;;;5088315;28;20187;-84
2022/05/11 01:40:48;;;;;;;5.00;2.90;;;12.70;99.90;;;;;;5104106;28;20172;-84
2022/05/11 01:43:27;;;;;;;4.60;3.37;;;12.70;99.90;;;;;;5104139;28;20562;-84
2022/05/11 01:45:53;;;;;;;3.77;2.70;;;12.70;99.90;;;;;;5103705;28;20222;-84
2022/05/11 01:48:18;;;;;;;7.27;3.23;;;12.70;99.90;;;;;;5102966;28;20180;-84
2022/05/11 01:50:44;;;;;;;4.30;2.80;;;12.60;99.90;;;;;;5120143;28;20259;-85
2022/05/11 01:53:11;;;;;;;3.63;3.10;;;;;;;;;;5119979;28;20221;-85
2022/05/11 01:55:37;;;;;;;4.83;2.80;;;12.60;99.90;;;;;;5101402;28;20620;-84
2022/05/11 01:58:06;;;;;;;3.97;2.80;;;12.60;99.90;;;;;;5119393;28;20176;-84
2022/05/11 02:00:33;;;;;;;3.67;3.20;;;12.60;99.90;;;;;;5100370;28;20183;-84
2022/05/11 02:02:58;;;;;;;3.70;3.13;;;12.50;99.90;;;;;;5098896;28;20210;-84
2022/05/11 02:08:09;;;;;;;5.03;3.13;;;12.50;99.90;;;;;;5118780;28;20167;-85
2022/05/11 02:10:35;;;;;;;3.10;2.70;;;12.50;99.90;;;;;;5105596;28;20176;-85
2022/05/11 02:13:00;;;;;;;5.27;2.93;;;12.50;99.90;;;;;;5105193;28;20226;-85
2022/05/11 02:15:27;;;;;;;3.33;2.80;;;12.50;99.90;;;;;;5107186;28;20195;-85
2022/05/11 02:17:53;;;;;;;2.83;2.47;;;12.40;99.90;;;;;;5106052;28;20250;-84
2022/05/11 02:20:19;;;;;;;4.03;2.83;;;12.70;99.90;;;;;;5107615;28;20214;-84
2022/05/11 02:22:46;;;;;;;4.40;3.00;;;12.40;99.90;;;;;;5135506;28;20176;-83
2022/05/11 02:25:13;;;;;;;4.37;2.87;;;12.40;99.90;;;;;;5133574;28;20227;-84
2022/05/11 02:27:39;;;;;;;4.27;2.70;;;12.40;99.90;;;;;;5105580;28;20171;-84
2022/05/11 02:30:09;;;;;;;3.60;2.67;;;12.40;99.90;;;;;;5105079;28;20263;-84
2022/05/11 02:32:34;;;;;;;4.47;2.37;;;12.40;99.90;;;;;;5123123;28;20267;-84
2022/05/11 02:35:12;;;;;;;4.00;2.50;;;;;;;;;;5104409;28;20219;-84
2022/05/11 02:37:59;;;;;;;2.90;2.50;;;12.40;99.90;;;;;;5123058;28;20160;-85
2022/05/11 02:40:31;;;;;;;3.20;2.77;;;12.30;99.90;;;;;;5104028;28;20186;-84
2022/05/11 02:42:57;;;;;;;4.33;2.87;;;12.30;99.90;;;;;;5123207;28;20230;-84
2022/05/11 02:45:25;;;;;;;4.00;2.63;;;12.30;99.90;;;;;;5105710;28;20207;-84
2022/05/11 02:47:52;;;;;;;3.10;2.80;;;12.20;99.90;;;;;;5105658;28;20184;-84
2022/05/11 02:50:21;;;;;;;2.80;2.50;;;12.20;99.90;;;;;;5124349;28;20633;-84
2022/05/11 02:52:47;;;;;;;4.47;2.80;;;12.20;99.90;;;;;;5123114;28;20270;-84
2022/05/11 02:55:13;;;;;;;2.63;2.40;;;12.20;99.90;;;;;;5105227;28;20640;-84
2022/05/11 02:57:38;;;;;;;2.53;2.33;;;12.20;99.90;;;;;;5105883;28;20175;-84
2022/05/11 03:00:07;;;;;;;3.83;2.70;;;12.20;99.90;;;;;;5123744;28;20224;-84
2022/05/11 03:02:32;;;;;;;3.07;2.33;;;12.10;99.90;;;;;;5105616;28;20183;-84
2022/05/11 03:04:58;;;;;;;3.43;2.80;;;12.10;99.90;;;;;;5123120;28;20286;-84
2022/05/11 03:07:24;;;;;;;4.87;2.77;;;;;;;;;;5104932;28;20316;-84
2022/05/11 03:09:51;;;;;;;5.67;2.67;;;12.10;99.90;;;;;;5105077;28;20179;-84
2022/05/11 03:12:17;;;;;;;4.40;2.73;;;12.10;99.90;;;;;;5124192;28;20235;-84
2022/05/11 03:14:43;;;;;;;3.10;2.80;;;12.10;99.90;;;;;;5123543;28;20253;-84
2022/05/11 03:17:09;;;;;;;4.37;2.93;;;;;;;;;;5106448;28;20251;-85
2022/05/11 03:19:35;;;;;;;3.90;2.50;;;12.10;99.90;;;;;;5124605;28;20186;-84
2022/05/11 03:22:01;;;;;;;4.07;2.60;;;12.00;99.90;;;;;;5110120;28;20216;-84
2022/05/11 03:24:27;;;;;;;3.60;2.60;;;12.00;99.90;;;;;;5108935;28;20199;-84
2022/05/11 03:26:53;;;;;;;3.23;2.20;;;;;;;;;;5123176;28;20168;-84
2022/05/11 03:29:19;;;;;;;3.33;2.70;;;12.00;99.90;;;;;;5105195;28;20632;-84
2022/05/11 03:34:36;;;;;;;4.20;2.60;;;12.00;99.90;;;;;;5104163;28;20262;-85
2022/05/11 03:34:38;;;;;;;2.97;2.63;;;12.00;99.90;;;;;;5124082;28;20203;-85
2022/05/11 03:37:18;;;;;;;3.30;2.67;;;12.00;99.90;;;;;;5105241;28;20164;-85
2022/05/11 03:39:45;;;;;;;3.90;2.87;;;12.00;99.90;;;;;;5124824;28;20179;-84
2022/05/11 03:42:18;;;;;;;3.13;2.70;;;12.00;99.90;;;;;;5106402;28;20175;-85
2022/05/11 03:44:45;;;;;;;7.83;2.77;;;12.00;99.90;;;;;;5111347;28;20240;-83
2022/05/11 03:47:11;;;;;;;4.80;2.50;;;11.90;99.90;;;;;;5134829;28;20176;-83
2022/05/11 03:49:37;;;;;;;3.37;2.70;;;;;;;;;;5129625;28;20293;-84
2022/05/11 03:52:04;;;;;;;3.97;3.10;;;11.90;99.90;;;;;;5122133;28;20658;-84
2022/05/11 03:54:30;;;;;;;3.27;2.60;;;11.90;99.90;;;;;;5103414;28;20203;-84
2022/05/11 03:56:56;;;;;;;2.80;2.40;;;11.80;99.90;;;;;;5104190;28;20179;-84
2022/05/11 03:59:22;;;;;;;4.27;2.80;;;;;;;;;;5121731;28;20172;-84
2022/05/11 04:01:48;;;;;;;4.73;2.83;;;;;;;;;;5103579;28;20698;-84
2022/05/11 04:04:14;;;;;;;3.43;2.87;;;;;;;;;;5121143;28;20200;-84
2022/05/11 04:06:40;;;;;;;2.83;2.43;;;;;;;;;;5103311;28;20182;-84
2022/05/11 04:09:06;;;;;;;2.70;2.33;;;11.80;99.90;;;;;;5102999;28;20194;-84
2022/05/11 04:11:33;;;;;;;4.23;2.70;;;;;;;;;;5120210;28;20629;-84
2022/05/11 04:13:59;;;;;;;3.13;2.37;;;11.80;99.90;;;;;;5102554;28;20227;-84
2022/05/11 04:16:25;;;;;;;5.53;2.87;;;;;;;;;;5101438;28;20175;-85
2022/05/11 04:18:50;;;;;;;3.20;2.37;;;11.90;99.90;;;;;;5101490;28;20179;-84
2022/05/11 04:21:16;;;;;;;4.80;2.50;;;11.80;99.90;;;;;;5101230;28;20232;-84
2022/05/11 04:23:43;;;;;;;4.37;2.57;;;;;;;;;;5100551;28;20195;-84
2022/05/11 04:26:10;;;;;;;4.63;3.00;;;12.00;99.90;;;;;;5100231;28;20206;-84
2022/05/11 04:28:38;;;;;;;6.63;2.30;;;12.00;99.90;;;;;;5117943;28;20174;-84
2022/05/11 04:31:06;;;;;;;5.20;3.00;;;12.00;99.90;;;;;;5099028;28;20179;-84
2022/05/11 04:33:32;;;;;;;3.33;2.90;;;12.10;99.90;;;;;;5099024;28;20191;-84
2022/05/11 04:35:58;;;;;;;3.37;2.90;;;12.10;99.90;;;;;;5100271;28;20175;-84
2022/05/11 04:38:24;;;;;;;3.73;2.40;;;12.10;99.90;;;;;;5099921;28;20671;-85
2022/05/11 04:40:49;;;;;;;3.73;2.90;;;12.20;99.90;;;;;;5125254;28;20214;-84
2022/05/11 04:43:15;;;;;;;3.27;2.83;;;12.20;99.90;;;;;;5125643;28;20550;-84
2022/05/11 04:45:43;;;;;;;4.73;2.87;;;12.30;99.90;;;;;;5107726;28;20211;-84
2022/05/11 04:48:10;;;;;;;3.27;2.50;;;12.40;99.90;;;;;;5108948;28;20186;-84
2022/05/11 04:50:38;;;;;;;3.30;2.50;;;12.40;99.90;;;;;;5106221;28;20180;-83
2022/05/11 04:53:04;;;;;;;3.83;3.00;;;12.50;99.90;;;;;;5113075;28;20204;-84
2022/05/11 04:55:30;;;;;;;5.93;3.50;;;12.50;99.90;;;;;;5086972;28;20241;-84
2022/05/11 04:57:56;;;;;;;3.77;2.87;;;;;;;;;;5106524;28;20180;-84
2022/05/11 05:00:22;;;;;;;3.57;2.77;;;12.60;99.90;;;;;;5116950;27;20259;-84
2022/05/11 05:02:48;;;;;;;3.83;2.90;;;12.70;99.90;;;;;;5107003;28;20681;-84
2022/05/11 05:05:14;;;;;;;4.47;3.37;;;12.70;99.90;;;;;;5124633;28;20207;-84
2022/05/11 05:07:41;;;;;;;4.03;2.90;;;12.80;99.90;;;;;;5106154;28;20197;-84
2022/05/11 05:10:09;;;;;;;4.60;3.47;;;12.90;99.90;;;;;;5105828;28;20195;-84
2022/05/11 05:12:36;;;;;;;4.97;3.20;;;13.00;99.90;;;;;;5095532;28;20184;-83
2022/05/11 05:15:02;;;;;;;5.33;3.57;;;13.00;99.90;;;;;;5087270;28;20185;-84
2022/05/11 05:17:28;;;;;;;7.73;3.87;;;13.10;99.90;;;;;;5087723;28;20190;-85
2022/05/11 05:19:54;;;;;;;7.10;3.40;;;13.10;99.90;;;;;;5106499;28;20172;-85
2022/05/11 05:22:20;;;;;;;4.87;3.33;;;;;;;;;;5110138;27;20220;-84
2022/05/11 05:24:45;;;;;;;6.47;3.30;;;13.30;99.90;;;;;;5128033;27;20203;-84
2022/05/11 05:27:17;;;;;;;4.93;3.37;;;13.40;99.90;;;;;;5135402;27;20194;-85
2022/05/11 05:32:27;;;;;;;4.50;3.20;;;;;;;;;;5124606;28;20254;-83
2022/05/11 05:34:53;;;;;;;4.30;3.03;;;13.60;99.90;;;;;;5104991;28;20198;-83
2022/05/11 05:37:19;;;;;;;5.23;2.90;;;13.70;99.90;;;;;;5105750;28;20561;-85
2022/05/11 05:39:46;;;;;;;2.73;2.27;;;13.70;99.90;;;;;;5123166;27;20217;-84
2022/05/11 05:42:19;;;;;;;4.97;2.70;;;13.70;99.90;;;;;;5148623;27;20186;-82
2022/05/11 05:44:45;;;;;;;3.57;2.83;;;14.00;99.90;;;;;;5124622;27;20254;-83
2022/05/11 05:47:11;;;;;;;3.43;2.47;;;;;;;;;;5106747;28;20364;-84
2022/05/11 05:49:37;;;;;;;4.10;2.60;;;14.20;99.90;;;;;;5104541;28;20179;-85
2022/05/11 05:52:03;;;;;;;3.27;2.60;;;14.20;99.90;;;;;;5121493;28;20190;-84
2022/05/11 05:54:30;;;;;;;8.60;2.60;;;14.40;99.90;;;;;;5097098;28;20377;-83
2022/05/11 05:56:57;;;;;;;4.37;2.50;;;14.40;99.90;;;;;;5102865;28;20187;-84
2022/05/11 05:59:22;;;;;;;3.00;2.40;;;14.50;99.90;;;;;;5100951;28;20183;-81
2022/05/11 06:01:49;;;;;;;5.43;2.50;;;;;;;;;;5100189;28;20229;-83
2022/05/11 06:04:15;;;;;;;3.17;2.40;;;14.70;99.90;;;;;;5104971;28;20200;-83
2022/05/11 06:06:40;;;;;;;3.63;2.30;;;14.80;99.90;;;;;;5082769;28;20183;-83
2022/05/11 06:09:07;;;;;;;2.93;2.30;;;;;;;;;;5100988;28;20175;-83
2022/05/11 06:11:32;;;;;;;4.77;2.27;;;15.00;99.90;;;;;;5082111;28;20168;-83
2022/05/11 06:13:59;;;;;;;4.10;2.50;;;15.10;99.90;;;;;;5124119;27;20213;-83
2022/05/11 06:16:25;;;;;;;3.33;2.27;;;15.10;99.90;;;;;;5141732;27;20171;-83
2022/05/11 06:18:51;;;;;;;4.03;2.13;;;15.20;99.90;;;;;;5124773;27;20179;-81
2022/05/11 06:21:17;;;;;;;3.60;2.37;;;15.20;99.90;;;;;;5127137;27;20195;-83
2022/05/11 06:23:44;;;;;;;3.47;2.50;;;15.40;99.90;;;;;;5121702;28;20191;-83
2022/05/11 06:26:10;;;;;;;3.77;2.40;;;15.40;99.90;;;;;;5120685;28;20191;-84
2022/05/11 06:28:39;;;;;;;3.10;2.80;;;15.50;99.90;;;;;;5103001;28;20182;-84
2022/05/11 06:31:05;;;;;;;4.30;2.50;;;15.60;99.90;;;;;;5103835;28;20258;-77
2022/05/11 06:33:33;;;;;;;3.50;2.40;;;15.90;99.90;;;;;;5101158;28;20239;-76
2022/05/11 06:35:59;;;;;;;2.97;2.50;;;15.90;99.90;;;;;;5090002;28;20188;-76
2022/05/11 06:38:26;;;;;;;4.53;2.93;;;16.00;99.90;;;;;;5095549;28;20661;-77
2022/05/11 06:40:51;;;;;;;8.20;2.80;;;16.20;99.90;;;;;;5094609;28;20538;-76
2022/05/11 06:43:18;;;;;;;6.07;2.70;;;16.40;99.90;;;;;;5109597;28;20711;-76
2022/05/11 06:45:44;;;;;;;3.43;2.27;;;16.40;99.90;;;;;;5114638;28;20230;-76
2022/05/11 06:48:09;;;;;;;4.10;2.87;;;16.50;99.90;;;;;;5096123;28;20639;-76
2022/05/11 06:50:35;;;;;;;2.83;2.30;;;16.60;99.90;;;;;;5114287;28;20176;-77
2022/05/11 06:53:09;;;;;;;7.40;2.50;;;16.80;99.90;;;;;;5114086;28;20206;-77
2022/05/11 07:01:10;;;;;;;3.37;2.67;;;17.10;99.90;;;;;;5114913;28;20171;-77
2022/05/11 07:03:36;;;;;;;3.73;2.20;;;17.40;99.90;;;;;;5116473;28;20564;-79
2022/05/11 07:06:03;;;;;;;6.77;2.70;;;17.50;99.90;;;;;;5114552;28;20207;-76
2022/05/11 07:08:40;;;;;;;4.30;2.60;;;17.70;99.90;;;;;;5114348;28;20186;-76
2022/05/11 07:13:52;;;;;;;6.67;2.90;;;18.10;99.90;;;;;;5111398;28;20623;-77
2022/05/11 07:16:21;;;;;;;3.30;2.60;;;18.20;99.90;;;;;;5114796;28;20221;-78
2022/05/11 07:18:46;;;;;;;2.97;2.30;;;18.40;99.90;;;;;;5097439;28;20183;-83
2022/05/11 07:21:12;;;;;;;4.03;2.50;;;18.60;99.90;;;;;;5100685;28;20184;-82
2022/05/11 07:23:38;;;;;;;2.60;2.40;;;18.80;99.90;;;;;;5100547;28;20704;-82
2022/05/11 07:26:03;;;;;;;8.37;2.50;;;19.00;99.90;;;;;;5101543;28;20290;-82
2022/05/11 07:28:29;;;;;;;5.83;2.70;;;19.20;99.90;;;;;;5101085;28;20183;-83
2022/05/11 07:30:55;;;;;;;3.63;3.30;;;19.40;99.90;;;;;;5119823;28;20259;-82
2022/05/11 07:33:21;;;;;;;2.97;2.20;;;19.70;99.90;;;;;;5101479;28;20214;-83
2022/05/11 07:35:46;;;;;;;2.67;2.20;;;19.70;99.90;;;;;;5101287;28;20172;-82
2022/05/11 07:38:14;;;;;;;3.27;2.40;;;19.70;99.90;;;;;;5119798;28;20181;-82
2022/05/11 07:40:41;;;;;;;2.83;2.50;;;19.70;99.90;;;;;;5119750;28;20187;-83
2022/05/11 07:43:09;;;;;;;2.80;2.50;;;19.90;99.90;;;;;;5101775;28;20211;-82
2022/05/11 07:45:36;;;;;;;3.73;2.13;;;20.00;99.90;;;;;;5112833;28;20200;-81
2022/05/11 07:48:02;;;;;;;2.93;2.60;;;20.10;99.90;;;;;;5102494;28;20213;-82
2022/05/11 07:50:28;;;;;;;2.80;2.50;;;20.30;99.90;;;;;;5120291;28;20629;-84
2022/05/11 07:52:54;;;;;;;2.77;2.57;;;20.40;99.90;;;;;;5102180;28;20274;-82
2022/05/11 07:55:24;;;;;;;2.60;2.40;;;20.50;99.90;;;;;;5102306;28;20187;-83
2022/05/11 08:00:34;;;;;;;4.47;2.43;;;20.50;99.90;;;;;;5121687;28;20212;-82
2022/05/11 08:03:00;;;;;;;6.40;2.70;;;20.90;99.90;;;;;;5130944;28;20191;-81
2022/05/11 08:05:26;;;;;;;4.40;2.50;;;21.50;99.90;;;;;;5133605;28;20234;-82
2022/05/11 08:07:56;;;;;;;5.60;2.27;;;22.10;99.90;;;;;;5123853;28;20324;-82
2022/05/11 08:10:29;;;;;;;5.77;2.37;;;22.70;99.80;;;;;;5103868;28;20168;-82
2022/05/11 08:12:55;;;;;;;2.53;2.10;;;23.60;95.40;;;;;;5122592;28;20274;-82
2022/05/11 08:15:23;;;;;;;2.67;2.40;;;23.60;95.80;;;;;;5122813;28;20200;-81
2022/05/11 08:17:51;;;;;;;3.40;2.70;;;23.60;95.00;;;;;;5122207;28;20186;-81
2022/05/11 08:20:26;;;;;;;2.93;2.30;;;23.80;94.40;;;;;;5103009;28;20184;-83
2022/05/11 08:22:52;;;;;;;2.70;2.33;;;24.60;93.30;;;;;;5122337;28;20212;-82
2022/05/11 08:25:20;;;;;;;5.50;2.50;;;24.70;92.80;;;;;;5121806;28;20204;-82
2022/05/11 08:27:49;;;;;;;3.10;2.20;;;25.00;90.80;;;;;;5122411;28;20184;-82
2022/05/11 08:33:22;;;;;;;5.47;2.60;;;25.30;88.00;;;;;;5122581;28;20222;-82
2022/05/11 08:35:58;;;;;;;3.37;2.40;;;25.10;87.40;;;;;;5103584;28;20177;-83
2022/05/11 08:38:28;;;;;;;4.67;2.33;;;25.20;84.90;;;;;;5103564;28;20249;-82
2022/05/11 08:41:02;;;;;;;3.73;2.20;;;25.40;82.10;;;;;;5103552;28;20181;-82
2022/05/11 08:43:31;;;;;;;2.47;2.03;;;25.60;80.50;;;;;;5103403;28;20198;-82
2022/05/11 08:46:20;;;;;;;2.47;2.00;;;25.00;82.40;;;;;;5122784;28;20197;-82
2022/05/11 08:49:03;;;;;;;2.63;2.30;;;25.30;78.90;;;;;;5122327;28;20533;-82
2022/05/11 08:51:45;;;;;;;4.27;2.10;;;25.40;75.20;;;;;;5122359;28;20195;-82
2022/05/11 08:54:31;;;;;;;3.07;2.10;;;25.50;74.60;;;;;;5103580;28;20203;-82
2022/05/11 08:56:58;;;;;;;3.27;2.00;;;25.50;72.30;;;;;;5102168;28;20174;-83
2022/05/11 08:59:30;;;;;;;1.90;1.70;;;25.50;74.00;;;;;;5102267;28;20187;-81
2022/05/11 09:02:06;;;;;;;5.40;1.83;;;25.70;71.20;;;;;;5121486;28;20246;-81
2022/05/11 09:04:47;;;;;;;3.80;1.80;;;25.90;69.40;;;;;;5120896;28;20210;-82
2022/05/11 09:07:13;;;;;;;3.00;2.10;;;26.00;69.70;;;;;;5101492;28;20171;-81
2022/05/11 09:09:40;;;;;;;8.47;2.10;;;25.70;66.80;;;;;;5101412;28;20175;-82
2022/05/11 09:12:07;;;;;;;4.57;1.97;;;25.50;70.80;;;;;;5120402;28;20191;-81
2022/05/11 09:14:37;;;;;;;3.10;1.90;;;25.80;69.20;;;;;;5101799;28;20215;-81
2022/05/11 09:17:06;;;;;;;3.80;2.10;;;26.10;69.20;;;;;;5102110;28;20267;-81
2022/05/11 09:19:34;;;;;;;3.57;1.77;;;26.10;67.10;;;;;;5112995;28;20180;-76
2022/05/11 09:22:14;;;;;;;6.70;1.90;;;25.90;65.30;;;;;;5096863;28;20546;-76
2022/05/11 09:24:59;;;;;;;2.83;1.80;;;25.80;64.70;;;;;;5098202;28;20200;-79
2022/05/11 09:27:31;;;;;;;3.60;1.93;;;25.10;66.10;;;;;;5077978;28;20187;-78
2022/05/11 09:30:01;;;;;;;3.40;2.00;;;25.10;66.80;;;;;;5101912;28;20195;-79
2022/05/11 09:32:42;;;;;;;2.90;1.60;;;25.40;67.00;;;;;;5101773;28;20570;-77
2022/05/11 09:35:14;;;;;;;2.47;1.90;;;25.60;66.80;;;;;;5098818;28;20186;-79
2022/05/11 09:37:42;;;;;;;4.03;1.70;;;25.70;65.60;;;;;;5130092;27;20179;-77
2022/05/11 09:40:14;;;;;;;1.93;1.60;;;25.70;66.30;;;;;;5136872;27;20692;-79
2022/05/11 09:42:58;;;;;;;1.77;1.63;;;25.90;64.30;;;;;;5122725;27;20519;-77
2022/05/11 09:45:48;;;;;;;2.33;1.53;;;25.70;67.80;;;;;;5132440;27;20192;-77
2022/05/11 09:48:28;;;;;;;2.63;1.93;;;25.80;65.20;;;;;;5078032;28;20574;-77
2022/05/11 09:51:16;;;;;;;4.13;2.07;;;25.30;65.80;;;;;;5095724;28;20158;-77
2022/05/11 09:53:53;;;;;;;5.17;1.63;;;25.70;65.80;;;;;;5080808;28;20195;-76
2022/05/11 09:56:29;;;;;;;2.47;1.60;;;25.90;63.60;;;;;;5093893;28;20237;-76
2022/05/11 09:58:55;;;;;;;3.13;1.60;;;26.00;61.40;;;;;;5095309;28;20160;-76
2022/05/11 10:01:29;;;;;;;2.87;1.70;;;26.00;61.30;;;;;;5105417;28;20231;-74
2022/05/11 10:04:03;;;;;;;1.77;1.50;;;25.70;62.10;;;;;;5115400;28;20666;-74
2022/05/11 10:06:35;;;;;;;5.87;1.77;;;25.90;62.70;;;;;;5104342;28;20256;-77
2022/05/11 10:09:02;;;;;;;3.37;1.80;;;26.00;62.20;;;;;;5108556;28;20186;-76
2022/05/11 10:11:42;;;;;;;3.73;1.83;;;26.20;62.60;;;;;;5119065;28;20662;-78
2022/05/11 10:22:42;;;;;;;2.67;2.00;;;26.20;62.10;;;;;;5099669;28;20176;-78
2022/05/11 10:25:28;;;;;;;2.90;1.60;;;26.20;61.70;;;;;;5083421;28;20661;-80
2022/05/11 10:28:40;;;;;;;2.50;1.80;;;26.20;62.70;;;;;;5102140;28;20209;-79
2022/05/11 10:31:19;;;;;;;1.90;1.60;;;26.50;65.10;;;;;;5038360;28;20234;-80
2022/05/11 10:34:45;;;;;;;2.23;1.90;;;26.30;59.50;;;;;;5083193;28;20188;-79
2022/05/11 10:37:29;;;;;;;2.30;1.53;;;26.20;59.30;;;;;;5001183;28;20652;-79
2022/05/11 10:40:03;;;;;;;1.83;1.70;;;26.50;60.10;;;;;;5102143;28;20259;-79
2022/05/11 10:42:42;;;;;;;2.47;1.97;;;26.60;60.30;;;;;;5120492;28;20167;-79
2022/05/11 10:45:30;;;;;;;1.87;1.67;;;27.00;60.50;;;;;;5102467;28;20286;-80
2022/05/11 10:48:11;;;;;;;1.83;1.63;;;27.00;60.90;;;;;;5100825;28;20167;-80
2022/05/11 10:51:04;;;;;;;1.60;1.50;;;27.30;64.30;;;;;;5108479;27;20195;-79
2022/05/11 10:54:09;;;;;;;1.67;1.40;;;27.70;59.20;;;;;;5142860;27;20193;-79
2022/05/11 10:56:50;;;;;;;1.97;1.70;;;27.90;57.50;;;;;;5136127;27;20679;-80
2022/05/11 10:59:24;;;;;;;1.90;1.70;;;27.60;57.90;;;;;;5093065;28;20174;-79
2022/05/11 11:02:06;;;;;;;3.03;1.60;;;27.90;62.60;;;;;;5103253;28;20156;-80
2022/05/11 11:04:57;;;;;;;2.63;1.67;;;28.20;57.70;;;;;;5103304;28;20214;-80
2022/05/11 11:07:38;;;;;;;2.77;1.43;;;27.90;60.10;;;;;;5119145;28;20186;-80
2022/05/11 11:10:24;;;;;;;2.40;1.63;;;28.20;56.80;;;;;;5121046;28;20162;-80
2022/05/11 11:13:00;;;;;;;2.10;1.70;;;28.10;57.10;;;;;;5102456;28;20214;-83
2022/05/11 11:15:30;;;;;;;3.37;1.50;;;28.00;57.10;;;;;;5123115;28;20232;-80
2022/05/11 11:17:57;;;;;;;2.50;1.50;;;28.10;55.80;;;;;;5098084;28;20180;-77
2022/05/11 11:20:24;;;;;;;2.47;1.73;;;27.90;59.70;;;;;;5114725;28;20177;-76
2022/05/11 11:23:08;;;;;;;3.90;1.67;;;27.90;57.80;;;;;;5120840;27;20201;-76
2022/05/11 11:25:55;;;;;;;3.73;1.60;;;28.10;64.10;;;;;;5131521;27;20573;-76
2022/05/11 11:28:23;;;;;;;3.60;1.97;;;28.80;60.20;;;;;;5114510;28;20157;-77
2022/05/11 11:30:58;;;;;;;6.60;2.00;;;29.10;58.60;;;;;;5114172;28;20179;-77
2022/05/11 11:33:34;;;;;;;1.97;1.67;;;29.40;57.10;;;;;;5104818;28;20273;-76
2022/05/11 11:36:03;;;;;;;2.20;1.77;;;29.20;55.30;;;;;;5101799;28;20652;-76
2022/05/11 11:38:36;;;;;;;2.77;1.53;;;29.00;56.00;;;;;;5118304;28;20172;-81
2022/05/11 11:41:23;;;;;;;1.83;1.73;;;29.40;57.00;;;;;;5126326;28;20189;-81
2022/05/11 11:44:04;;;;;;;2.00;1.80;;;29.50;55.10;;;;;;5123825;27;20198;-80
2022/05/11 11:46:32;;;;;;;2.47;1.77;;;29.40;53.70;;;;;;5119027;27;20238;-81
2022/05/11 11:49:30;;;;;;;1.70;1.60;;;29.70;58.20;;;;;;5081517;28;20182;-81
2022/05/11 11:52:07;;;;;;;2.53;1.97;;;30.60;62.80;;;;;;5102105;28;20197;-81
2022/05/11 11:54:42;;;;;;;2.07;1.83;;;31.00;57.20;;;;;;5103685;28;20229;-82
2022/05/11 11:57:16;;;;;;;2.63;2.03;;;30.80;53.80;;;;;;5084646;28;20255;-81
2022/05/11 11:59:58;;;;;;;2.73;2.00;;;30.60;52.60;;;;;;5102751;28;20181;-82
2022/05/11 12:02:36;;;;;;;2.83;2.10;;;30.30;56.20;;;;;;5102185;28;20174;-82
2022/05/11 12:05:08;;;;;;;2.47;2.07;;;30.70;54.60;;;;;;5084867;28;20211;-82
2022/05/11 12:16:14;;;;;;;3.63;2.13;;;32.30;52.80;;;;;;5129703;27;20210;-77
2022/05/11 12:18:43;;;;;;;2.83;1.80;;;32.50;50.60;;;;;;5117720;28;20176;-77
2022/05/11 12:21:31;;;;;;;3.27;2.20;;;31.50;53.30;;;;;;5099323;28;20551;-78
2022/05/11 12:24:01;;;;;;;3.10;2.00;;;31.90;56.20;;;;;;5117525;28;20199;-77
2022/05/11 12:26:33;;;;;;;2.27;2.07;;;32.20;52.70;;;;;;5117457;28;20199;-78
2022/05/11 12:31:58;;;;;;;2.10;1.93;;;31.60;52.70;;;;;;5112591;28;20221;-77
2022/05/11 12:34:27;;;;;;;2.87;1.90;;;32.10;52.10;;;;;;5106237;28;20206;-78
2022/05/11 12:36:55;;;;;;;2.73;1.80;;;31.90;50.80;;;;;;5096889;28;20272;-78
2022/05/11 12:39:33;;;;;;;3.17;1.70;;;32.00;52.80;;;;;;5100746;28;20189;-77
2022/05/11 12:41:58;;;;;;;2.57;1.90;;;32.40;53.90;;;;;;5116945;28;20179;-77
2022/05/11 12:44:30;;;;;;;3.07;2.07;;;32.80;52.80;;;;;;5116976;28;20555;-75
2022/05/11 12:46:58;;;;;;;3.90;2.10;;;33.00;52.70;;;;;;5116996;28;20168;-76
2022/05/11 12:49:26;;;;;;;2.07;1.87;;;33.00;49.10;;;;;;5117388;28;20176;-75
2022/05/11 12:52:03;;;;;;;2.20;1.80;;;32.80;50.00;;;;;;5116665;28;20175;-77
2022/05/11 12:54:31;;;;;;;3.97;1.97;;;32.70;53.50;;;;;;5119623;28;20195;-81
2022/05/11 12:57:08;;;;;;;6.50;1.93;;;32.50;51.10;;;;;;5110826;28;20181;-81
2022/05/11 12:59:35;;;;;;;2.40;1.53;;;32.50;53.80;;;;;;5106175;28;20169;-81
2022/05/11 13:02:14;;;;;;;3.03;2.20;;;32.90;51.60;;;;;;5104282;28;20381;-82
2022/05/11 13:04:53;;;;;;;3.93;1.83;;;33.30;49.00;;;;;;5123602;28;20211;-81
2022/05/11 13:08:11;;;;;;;6.60;1.90;;;33.10;47.20;;;;;;5106255;28;20200;-82
2022/05/11 13:10:38;;;;;;;1.97;1.70;;;32.20;47.50;;;;;;5086354;28;20239;-80
2022/05/11 13:13:12;;;;;;;2.17;1.70;;;32.10;51.00;;;;;;5107278;28;20274;-81
2022/05/11 13:15:45;;;;;;;3.00;1.67;;;31.90;49.40;;;;;;5096591;28;20205;-81
2022/05/11 13:18:29;;;;;;;3.73;2.10;;;31.80;48.10;;;;;;5085715;28;20265;-80
2022/05/11 13:20:58;;;;;;;2.73;1.80;;;31.00;47.30;;;;;;5096144;28;20251;-81
2022/05/11 13:23:27;;;;;;;3.30;1.93;;;31.50;51.40;;;;;;5105732;28;20681;-81
2022/05/11 13:25:55;;;;;;;4.80;1.70;;;31.90;49.00;;;;;;5106753;28;20293;-81
2022/05/11 13:28:29;;;;;;;4.13;1.73;;;31.90;50.30;;;;;;5118650;27;20194;-81
2022/05/11 13:30:57;;;;;;;4.40;2.33;;;31.80;52.10;;;;;;5089169;28;20283;-81
2022/05/11 13:33:29;;;;;;;3.93;1.60;;;31.90;53.30;;;;;;5087863;28;20207;-81
2022/05/11 13:36:10;;;;;;;6.33;1.87;;;32.10;47.20;;;;;;5105585;28;20176;-82
2022/05/11 13:38:36;;;;;;;1.67;1.57;;;32.20;46.70;;;;;;5088419;28;20246;-81
2022/05/11 13:41:04;;;;;;;2.50;1.77;;;32.00;46.90;;;;;;5128280;27;20351;-80
2022/05/11 13:43:35;;;;;;;5.27;1.90;;;32.00;49.00;;;;;;5133066;27;20269;-81
2022/05/11 13:46:11;;;;;;;1.90;1.63;;;32.00;46.30;;;;;;5137341;27;20269;-81
2022/05/11 13:48:45;;;;;;;4.60;2.00;;;32.40;49.70;;;;;;5127005;27;20177;-80
2022/05/11 13:51:22;;;;;;;3.50;1.80;;;33.10;49.30;;;;;;5104349;28;20210;-80
2022/05/11 13:53:57;;;;;;;3.53;1.60;;;32.70;45.40;;;;;;5086314;28;20259;-80